createdAt,value
2019-03-19T00:00:22.205Z,8.11
2019-03-19T00:02:53.202Z,8.18
2019-03-19T00:05:34.409Z,8.18
2019-03-19T00:08:13.611Z,8.16
2019-03-19T00:10:43.937Z,8.14
2019-03-19T00:13:16.642Z,8.15
2019-03-19T00:15:51.831Z,8.12
2019-03-19T00:18:22.872Z,8.10
2019-03-19T00:20:53.753Z,8.13
2019-03-19T00:23:26.127Z,8.18
2019-03-19T00:25:57.204Z,8.24
2019-03-19T00:28:29.961Z,8.30
2019-03-19T00:31:03.757Z,8.30
2019-03-19T00:33:34.766Z,8.29
2019-03-19T00:36:05.809Z,8.32
2019-03-19T00:38:41.187Z,8.24
2019-03-19T00:41:12.527Z,8.17
2019-03-19T00:43:46.711Z,8.10
2019-03-19T00:46:24.585Z,8.03
2019-03-19T00:48:55.560Z,7.92
2019-03-19T00:51:26.470Z,7.84
2019-03-19T00:53:57.475Z,7.84
2019-03-19T00:56:32.673Z,7.87
2019-03-19T00:59:09.622Z,7.88
2019-03-19T01:01:40.594Z,7.91
2019-03-19T01:04:11.528Z,7.90
2019-03-19T01:06:42.450Z,7.90
2019-03-19T01:09:13.206Z,7.84
2019-03-19T01:11:50.205Z,7.76
2019-03-19T01:14:21.573Z,7.70
2019-03-19T01:16:55.562Z,7.64
2019-03-19T01:19:26.505Z,7.57
2019-03-19T01:22:06.330Z,7.55
2019-03-19T01:24:38.808Z,7.51
2019-03-19T01:27:09.645Z,7.49
2019-03-19T01:29:45.387Z,7.44
2019-03-19T01:32:16.705Z,7.39
2019-03-19T01:34:47.557Z,7.36
2019-03-19T01:37:21.415Z,7.33
2019-03-19T01:39:52.288Z,7.30
2019-03-19T01:42:35.675Z,7.30
2019-03-19T01:45:10.147Z,7.27
2019-03-19T01:47:41.039Z,7.27
2019-03-19T01:50:16.457Z,7.25
2019-03-19T01:52:58.449Z,7.24
2019-03-19T01:55:33.896Z,7.18
2019-03-19T01:58:07.666Z,7.17
2019-03-19T02:00:50.959Z,7.13
2019-03-19T02:03:24.596Z,7.13
2019-03-19T02:06:12.033Z,7.12
2019-03-19T02:08:36.173Z,7.10
2019-03-19T02:11:13.289Z,7.06
2019-03-19T02:13:49.993Z,6.99
2019-03-19T02:16:37.274Z,6.96
2019-03-19T02:19:22.279Z,6.93
2019-03-19T02:22:27.141Z,6.90
2019-03-19T02:24:39.719Z,6.87
2019-03-19T02:27:25.132Z,6.86
2019-03-19T02:30:06.151Z,6.85
2019-03-19T02:32:46.634Z,6.85
2019-03-19T02:35:23.885Z,6.82
2019-03-19T02:37:59.978Z,6.81
2019-03-19T02:40:37.324Z,6.79
2019-03-19T02:43:11.107Z,6.76
2019-03-19T02:45:45.502Z,6.75
2019-03-19T02:48:34.013Z,6.73
2019-03-19T02:51:12.923Z,6.76
2019-03-19T02:53:49.639Z,6.76
2019-03-19T02:56:32.979Z,6.72
2019-03-19T02:59:06.387Z,6.70
2019-03-19T03:01:49.256Z,6.69
2019-03-19T03:04:26.010Z,6.63
2019-03-19T03:07:04.081Z,6.59
2019-03-19T03:09:39.404Z,6.56
2019-03-19T03:12:14.482Z,6.50
2019-03-19T03:14:49.507Z,6.47
2019-03-19T03:17:24.213Z,6.50
2019-03-19T03:19:56.266Z,6.47
2019-03-19T03:22:31.257Z,6.44
2019-03-19T03:25:12.834Z,6.44
2019-03-19T03:27:43.813Z,6.40
2019-03-19T03:30:14.960Z,6.37
2019-03-19T03:32:45.945Z,6.34
2019-03-19T03:35:16.964Z,6.34
2019-03-19T03:37:51.152Z,6.34
2019-03-19T03:40:21.963Z,6.39
2019-03-19T03:42:52.950Z,6.39
2019-03-19T03:45:28.121Z,6.42
2019-03-19T03:47:59.082Z,6.36
2019-03-19T03:50:30.185Z,6.33
2019-03-19T03:53:01.164Z,6.34
2019-03-19T03:55:36.499Z,6.32
2019-03-19T03:58:08.946Z,6.37
2019-03-19T04:00:40.531Z,6.47
2019-03-19T04:03:12.487Z,6.58
2019-03-19T04:05:45.733Z,6.63
2019-03-19T04:08:16.494Z,6.73
2019-03-19T04:10:47.277Z,6.79
2019-03-19T04:13:18.402Z,6.79
2019-03-19T04:15:50.774Z,6.84
2019-03-19T04:18:21.631Z,6.83
2019-03-19T04:20:52.793Z,6.80
2019-03-19T04:23:23.973Z,6.84
2019-03-19T04:25:55.359Z,6.84
2019-03-19T04:28:28.204Z,6.92
2019-03-19T04:30:59.254Z,6.94
2019-03-19T04:33:42.100Z,6.93
2019-03-19T04:36:13.378Z,6.90
2019-03-19T04:38:44.583Z,6.86
2019-03-19T04:41:16.809Z,6.91
2019-03-19T04:43:49.319Z,6.95
2019-03-19T04:46:20.537Z,7.00
2019-03-19T04:49:03.694Z,7.10
2019-03-19T04:51:35.650Z,7.11
2019-03-19T04:54:12.735Z,7.12
2019-03-19T04:57:04.718Z,7.14
2019-03-19T04:59:31.435Z,7.17
2019-03-19T05:02:22.085Z,7.20
2019-03-19T05:04:52.981Z,7.17
2019-03-19T05:07:24.130Z,7.12
2019-03-19T05:09:55.275Z,7.09
2019-03-19T05:12:27.337Z,7.02
2019-03-19T05:15:06.616Z,7.06
2019-03-19T05:17:37.637Z,7.08
2019-03-19T05:20:12.985Z,7.11
2019-03-19T05:22:43.896Z,7.02
2019-03-19T05:25:14.787Z,7.01
2019-03-19T05:27:47.022Z,7.01
2019-03-19T05:30:20.593Z,7.08
2019-03-19T05:32:52.479Z,7.11
2019-03-19T05:35:26.419Z,7.10
2019-03-19T05:37:57.539Z,7.12
2019-03-19T05:40:35.715Z,7.16
2019-03-19T05:43:13.048Z,7.20
2019-03-19T05:45:46.089Z,7.24
2019-03-19T05:48:32.267Z,7.23
2019-03-19T05:51:11.159Z,7.25
2019-03-19T05:54:02.087Z,7.25
2019-03-19T05:56:37.702Z,7.27
2019-03-19T05:59:21.358Z,7.33
2019-03-19T06:02:00.762Z,7.36
2019-03-19T06:04:36.362Z,7.34
2019-03-19T06:12:12.106Z,7.44
2019-03-19T06:14:42.876Z,7.50
2019-03-19T06:17:13.612Z,7.63
2019-03-19T06:19:44.960Z,7.77
2019-03-19T06:22:16.984Z,7.84
2019-03-19T06:24:48.503Z,7.88
2019-03-19T06:27:21.094Z,7.94
2019-03-19T06:29:53.311Z,8.03
2019-03-19T06:32:26.701Z,8.11
2019-03-19T06:34:58.998Z,8.08
2019-03-19T06:37:30.158Z,8.07
2019-03-19T06:40:01.138Z,8.03
2019-03-19T06:42:33.231Z,8.07
2019-03-19T06:45:12.026Z,8.03
2019-03-19T06:47:47.089Z,8.05
2019-03-19T06:50:32.666Z,8.08
2019-03-19T06:53:04.547Z,8.11
2019-03-19T06:55:44.552Z,8.06
2019-03-19T06:58:26.213Z,8.05
2019-03-19T07:00:58.919Z,8.15
2019-03-19T07:03:32.284Z,8.28
2019-03-19T07:06:05.623Z,8.52
2019-03-19T07:08:36.561Z,8.64
2019-03-19T07:11:07.523Z,8.58
2019-03-19T07:13:38.780Z,8.65
2019-03-19T07:16:12.208Z,8.80
2019-03-19T07:18:47.181Z,8.99
2019-03-19T07:21:20.556Z,9.14
2019-03-19T07:23:58.234Z,9.22
2019-03-19T07:26:31.238Z,9.15
2019-03-19T07:29:03.252Z,8.98
2019-03-19T07:31:49.860Z,9.09
2019-03-19T07:34:29.783Z,9.22
2019-03-19T07:37:00.820Z,9.36
2019-03-19T07:40:01.119Z,9.64
2019-03-19T07:42:36.397Z,10.20
2019-03-19T07:45:46.139Z,10.37
2019-03-19T07:48:34.377Z,10.45
2019-03-19T07:51:07.707Z,10.17
2019-03-19T07:53:50.447Z,10.00
2019-03-19T07:56:21.244Z,9.96
2019-03-19T07:58:58.916Z,10.13
2019-03-19T08:01:34.255Z,10.25
2019-03-19T08:04:12.005Z,10.25
2019-03-19T08:07:04.620Z,10.28
2019-03-19T08:09:48.320Z,10.26
2019-03-19T08:12:26.223Z,10.30
2019-03-19T08:15:01.310Z,10.31
2019-03-19T08:17:36.658Z,10.31
2019-03-19T08:20:14.222Z,10.46
2019-03-19T08:22:54.770Z,10.80
2019-03-19T08:25:29.673Z,11.09
2019-03-19T08:28:00.375Z,11.03
2019-03-19T08:30:33.243Z,10.85
2019-03-19T08:33:10.493Z,10.79
2019-03-19T08:35:43.900Z,10.90
2019-03-19T08:38:27.636Z,10.91
2019-03-19T08:41:02.948Z,10.74
2019-03-19T08:43:43.036Z,10.65
2019-03-19T08:46:20.245Z,10.73
2019-03-19T08:48:56.680Z,10.80
2019-03-19T08:51:27.936Z,11.02
2019-03-19T08:54:01.656Z,11.15
2019-03-19T08:56:38.008Z,11.00
2019-03-19T08:59:26.961Z,10.98
2019-03-19T09:02:02.719Z,10.93
2019-03-19T09:04:40.347Z,10.74
2019-03-19T09:07:22.691Z,10.59
2019-03-19T09:09:55.587Z,10.41
2019-03-19T09:12:38.840Z,10.20
2019-03-19T09:15:44.450Z,9.88
2019-03-19T09:18:01.708Z,9.60
2019-03-19T09:20:42.732Z,9.36
2019-03-19T09:23:30.533Z,9.17
2019-03-19T09:26:12.918Z,9.18
2019-03-19T09:28:47.821Z,9.50
2019-03-19T09:31:25.564Z,10.03
2019-03-19T09:34:02.260Z,10.39
2019-03-19T09:36:41.036Z,10.39
2019-03-19T09:39:31.106Z,10.29
2019-03-19T09:42:15.800Z,10.07
2019-03-19T09:44:58.515Z,9.74
2019-03-19T09:47:35.870Z,9.48
2019-03-19T09:50:07.721Z,9.31
2019-03-19T09:52:50.033Z,9.24
2019-03-19T09:55:37.683Z,9.15
2019-03-19T09:58:47.645Z,9.30
2019-03-19T10:01:28.860Z,9.51
2019-03-19T10:04:06.276Z,9.79
2019-03-19T10:06:48.613Z,9.79
2019-03-19T10:09:29.651Z,9.79
2019-03-19T10:12:21.355Z,9.96
2019-03-19T10:14:59.854Z,9.79
2019-03-19T10:17:34.266Z,9.65
2019-03-19T10:20:13.378Z,9.55
2019-03-19T10:22:48.094Z,9.74
2019-03-19T10:25:21.588Z,10.08
2019-03-19T10:28:07.959Z,10.32
2019-03-19T10:30:38.477Z,10.53
2019-03-19T10:33:15.894Z,10.72
2019-03-19T10:35:47.124Z,10.93
2019-03-19T10:38:20.327Z,11.19
2019-03-19T10:41:03.295Z,11.30
2019-03-19T10:43:40.567Z,11.30
2019-03-19T10:46:10.861Z,11.41
2019-03-19T10:48:53.006Z,11.63
2019-03-19T10:51:49.023Z,11.73
2019-03-19T10:54:19.875Z,11.74
2019-03-19T10:57:05.128Z,11.81
2019-03-19T10:59:49.212Z,12.01
2019-03-19T11:02:23.728Z,12.15
2019-03-19T11:05:02.022Z,12.33
2019-03-19T11:07:36.894Z,12.57
2019-03-19T11:10:33.215Z,13.27
2019-03-19T11:13:43.375Z,13.45
2019-03-19T11:16:27.442Z,13.38
2019-03-19T11:19:03.899Z,13.10
2019-03-19T11:21:35.416Z,13.16
2019-03-19T11:24:09.612Z,13.05
2019-03-19T11:26:41.841Z,12.87
2019-03-19T11:29:13.025Z,12.51
2019-03-19T11:35:37.097Z,12.01
2019-03-19T11:38:00.253Z,11.89
2019-03-19T11:39:51.425Z,11.88
2019-03-19T11:42:34.541Z,11.83
2019-03-19T11:45:08.556Z,11.71
2019-03-19T11:47:41.610Z,11.52
2019-03-19T11:50:50.548Z,11.26
2019-03-19T11:53:29.784Z,10.85
2019-03-19T11:56:01.851Z,10.57
2019-03-19T11:58:39.024Z,10.50
2019-03-19T12:01:13.013Z,10.53
2019-03-19T12:03:44.412Z,10.69
2019-03-19T12:06:17.292Z,10.81
2019-03-19T12:08:50.551Z,10.95
2019-03-19T12:11:21.348Z,10.96
2019-03-19T12:13:58.007Z,10.73
2019-03-19T12:16:29.242Z,10.78
2019-03-19T12:19:00.387Z,11.03
2019-03-19T12:21:31.222Z,11.84
2019-03-19T12:24:02.980Z,12.69
2019-03-19T12:26:35.458Z,12.78
2019-03-19T12:29:09.629Z,12.59
2019-03-19T12:35:17.910Z,12.49
2019-03-19T12:37:48.991Z,12.57
2019-03-19T12:40:19.792Z,12.59
2019-03-19T12:42:54.275Z,12.63
2019-03-19T12:45:38.220Z,12.62
2019-03-19T12:48:46.619Z,12.31
2019-03-19T12:51:06.330Z,12.16
2019-03-19T12:53:40.146Z,12.26
2019-03-19T12:56:24.490Z,12.23
2019-03-19T12:58:59.503Z,12.21
2019-03-19T13:01:52.078Z,11.98
2019-03-19T13:04:20.332Z,11.77
2019-03-19T13:06:57.288Z,11.70
2019-03-19T13:09:39.717Z,11.75
2019-03-19T13:12:14.715Z,11.61
2019-03-19T13:14:50.917Z,11.49
2019-03-19T13:17:25.250Z,11.21
2019-03-19T13:19:57.915Z,11.15
2019-03-19T13:22:30.982Z,11.17
2019-03-19T13:25:02.249Z,11.24
2019-03-19T13:27:33.308Z,11.30
2019-03-19T13:30:06.696Z,11.39
2019-03-19T13:32:38.005Z,11.35
2019-03-19T13:35:13.366Z,11.50
2019-03-19T13:37:48.364Z,11.71
2019-03-19T13:40:30.359Z,11.98
2019-03-19T13:43:18.704Z,12.23
2019-03-19T13:46:06.683Z,11.95
2019-03-19T13:49:28.484Z,11.77
2019-03-19T13:52:15.997Z,11.93
2019-03-19T13:54:48.128Z,12.54
2019-03-19T13:57:19.079Z,12.75
2019-03-19T13:59:55.038Z,12.66
2019-03-19T14:02:44.233Z,12.58
2019-03-19T14:05:30.227Z,12.37
2019-03-19T14:08:12.904Z,12.38
2019-03-19T14:10:47.767Z,12.38
2019-03-19T14:13:18.733Z,12.76
2019-03-19T14:15:52.365Z,13.28
2019-03-19T14:18:37.003Z,13.57
2019-03-19T14:21:32.338Z,13.82
2019-03-19T14:24:22.454Z,13.84
2019-03-19T14:27:03.572Z,13.64
2019-03-19T14:29:43.487Z,13.47
2019-03-19T14:32:20.126Z,13.16
2019-03-19T14:34:59.645Z,12.94
2019-03-19T14:37:36.985Z,12.89
2019-03-19T14:40:17.195Z,12.86
2019-03-19T14:43:01.676Z,12.87
2019-03-19T14:45:37.361Z,12.77
2019-03-19T14:51:19.305Z,12.51
2019-03-19T14:53:59.316Z,12.50
2019-03-19T14:56:33.507Z,12.34
2019-03-19T14:59:22.879Z,12.27
2019-03-19T15:02:04.672Z,12.11
2019-03-19T15:04:36.791Z,11.97
2019-03-19T15:07:13.070Z,11.85
2019-03-19T15:09:58.531Z,11.69
2019-03-19T15:12:42.951Z,11.64
2019-03-19T15:15:25.829Z,11.68
2019-03-19T15:17:59.528Z,11.61
2019-03-19T15:20:31.900Z,11.36
2019-03-19T15:23:03.267Z,11.26
2019-03-19T15:25:54.287Z,11.38
2019-03-19T15:28:33.430Z,11.47
2019-03-19T15:31:11.059Z,11.56
2019-03-19T15:33:46.025Z,11.66
2019-03-19T15:36:25.036Z,11.74
2019-03-19T15:39:01.382Z,11.78
2019-03-19T15:41:34.010Z,11.78
2019-03-19T15:44:05.590Z,11.83
2019-03-19T15:46:39.639Z,11.82
2019-03-19T15:49:13.808Z,11.81
2019-03-19T15:51:49.481Z,11.80
2019-03-19T15:54:22.707Z,11.77
2019-03-19T15:57:02.945Z,11.74
2019-03-19T15:59:40.030Z,11.65
2019-03-19T16:02:11.755Z,11.64
2019-03-19T16:04:45.356Z,11.73
2019-03-19T16:07:26.148Z,11.68
2019-03-19T16:10:06.172Z,11.70
2019-03-19T16:12:40.295Z,11.65
2019-03-19T16:15:14.920Z,11.60
2019-03-19T16:17:45.914Z,11.58
2019-03-19T16:20:18.911Z,11.57
2019-03-19T16:22:52.888Z,11.54
2019-03-19T16:25:26.456Z,11.51
2019-03-19T16:28:10.750Z,11.45
2019-03-19T16:30:49.985Z,11.39
2019-03-19T16:33:26.240Z,11.35
2019-03-19T16:36:00.408Z,11.33
2019-03-19T16:38:39.595Z,11.30
2019-03-19T16:41:17.142Z,11.31
2019-03-19T16:43:53.045Z,11.31
2019-03-19T16:46:24.389Z,11.34
2019-03-19T16:48:58.492Z,11.30
2019-03-19T16:51:35.658Z,11.26
2019-03-19T16:54:10.924Z,11.25
2019-03-19T16:56:41.761Z,11.21
2019-03-19T16:59:30.606Z,11.20
2019-03-19T17:02:03.970Z,11.16
2019-03-19T17:04:34.842Z,11.16
2019-03-19T17:07:11.066Z,11.12
2019-03-19T17:09:42.563Z,11.06
2019-03-19T17:12:13.616Z,11.03
2019-03-19T17:14:46.669Z,11.04
2019-03-19T17:17:25.337Z,10.99
2019-03-19T17:19:59.684Z,10.96
2019-03-19T17:22:43.681Z,10.97
2019-03-19T17:25:18.403Z,10.91
2019-03-19T17:27:51.029Z,10.88
2019-03-19T17:30:24.382Z,10.89
2019-03-19T17:34:22.495Z,10.92
2019-03-19T17:36:17.411Z,10.90
2019-03-19T17:38:53.253Z,10.86
2019-03-19T17:41:32.874Z,10.81
2019-03-19T17:44:21.889Z,10.79
2019-03-19T17:47:37.269Z,10.74
2019-03-19T17:49:52.161Z,10.74
2019-03-19T17:52:35.287Z,10.75
2019-03-19T17:55:09.144Z,10.73
2019-03-19T17:57:39.972Z,10.69
2019-03-19T18:00:18.150Z,10.68
2019-03-19T18:02:52.562Z,10.65
2019-03-19T18:05:23.285Z,10.66
2019-03-19T18:07:56.561Z,10.68
2019-03-19T18:10:30.950Z,10.64
2019-03-19T18:13:03.750Z,10.62
2019-03-19T18:15:41.568Z,10.63
2019-03-19T18:18:15.434Z,10.59
2019-03-19T18:20:52.719Z,10.53
2019-03-19T18:23:32.294Z,10.55
2019-03-19T18:26:09.525Z,10.54
2019-03-19T18:28:54.910Z,10.53
2019-03-19T18:31:38.027Z,10.58
2019-03-19T18:34:18.995Z,10.59
2019-03-19T18:36:59.381Z,10.58
2019-03-19T18:39:26.715Z,10.52
2019-03-19T18:42:10.133Z,10.49
2019-03-19T18:44:55.146Z,10.45
2019-03-19T18:47:27.521Z,10.43
2019-03-19T18:50:05.207Z,10.42
2019-03-19T18:56:12.922Z,10.37
2019-03-19T18:58:56.408Z,10.36
2019-03-19T19:02:04.929Z,10.40
2019-03-19T19:05:29.859Z,10.41
2019-03-19T19:08:20.669Z,10.38
2019-03-19T19:10:59.630Z,10.38
2019-03-19T19:13:31.027Z,10.41
2019-03-19T19:16:05.121Z,10.38
2019-03-19T19:18:39.061Z,10.38
2019-03-19T19:22:40.770Z,10.38
2019-03-19T19:24:18.039Z,10.36
2019-03-19T19:28:46.818Z,10.37
2019-03-19T19:29:43.687Z,10.38
2019-03-19T19:32:37.078Z,10.37
2019-03-19T19:35:18.327Z,10.35
2019-03-19T19:37:55.694Z,10.34
2019-03-19T19:40:29.753Z,10.36
2019-03-19T19:43:01.001Z,10.32
2019-03-19T19:45:40.250Z,10.30
2019-03-19T19:48:15.058Z,10.28
2019-03-19T19:50:53.486Z,10.32
2019-03-19T19:53:32.717Z,10.31
2019-03-19T19:56:07.692Z,10.33
2019-03-19T19:58:41.650Z,10.34
2019-03-19T20:01:12.693Z,10.31
2019-03-19T20:03:57.078Z,10.30
2019-03-19T20:06:28.105Z,10.31
2019-03-19T20:09:03.639Z,10.32
2019-03-19T20:11:45.748Z,10.32
2019-03-19T20:15:11.045Z,10.31
2019-03-19T20:17:53.673Z,10.30
2019-03-19T20:20:27.652Z,10.33
2019-03-19T20:23:35.814Z,10.34
2019-03-19T20:25:51.778Z,10.35
2019-03-19T20:28:24.201Z,10.38
2019-03-19T20:31:03.284Z,10.34
2019-03-19T20:33:34.638Z,10.35
2019-03-19T20:36:08.558Z,10.38
2019-03-19T20:38:45.622Z,10.36
2019-03-19T20:41:40.139Z,10.31
2019-03-19T20:44:13.633Z,10.29
2019-03-19T20:47:09.626Z,10.30
2019-03-19T20:49:47.520Z,10.30
2019-03-19T20:52:19.193Z,10.35
2019-03-19T20:54:52.462Z,10.35
2019-03-19T20:57:27.011Z,10.34
2019-03-19T20:59:57.832Z,10.33
2019-03-19T21:02:29.058Z,10.32
2019-03-19T21:05:02.894Z,10.31
2019-03-19T21:07:33.756Z,10.31
2019-03-19T21:10:09.784Z,10.27
2019-03-19T21:13:07.227Z,10.26
2019-03-19T21:15:39.876Z,10.21
2019-03-19T21:18:18.657Z,10.20
2019-03-19T21:21:14.773Z,10.19
2019-03-19T21:23:32.974Z,10.18
2019-03-19T21:26:08.639Z,10.18
2019-03-19T21:28:41.891Z,10.16
2019-03-19T21:31:14.465Z,10.19
2019-03-19T21:33:51.375Z,10.18
2019-03-19T21:36:28.750Z,10.16
2019-03-19T21:38:59.632Z,10.11
2019-03-19T21:41:30.479Z,10.10
2019-03-19T21:44:14.916Z,10.06
2019-03-19T21:46:54.233Z,9.99
2019-03-19T21:49:34.522Z,9.96
2019-03-19T21:52:02.201Z,9.95
2019-03-19T21:54:45.894Z,9.91
2019-03-19T21:57:28.867Z,9.89
2019-03-19T22:00:12.096Z,9.80
2019-03-19T22:02:34.498Z,9.74
2019-03-19T22:05:13.419Z,9.72
2019-03-19T22:07:56.025Z,9.64
2019-03-19T22:10:30.774Z,9.58
2019-03-19T22:13:08.999Z,9.53
2019-03-19T22:15:50.945Z,9.47
2019-03-19T22:18:24.077Z,9.39
2019-03-19T22:20:59.188Z,9.34
2019-03-19T22:23:31.895Z,9.29
2019-03-19T22:26:04.435Z,9.27
2019-03-19T22:28:35.615Z,9.22
2019-03-19T22:31:06.974Z,9.20
2019-03-19T22:33:41.968Z,9.16
2019-03-19T22:36:16.303Z,9.11
2019-03-19T22:38:47.216Z,9.09
2019-03-19T22:41:19.900Z,9.03
2019-03-19T22:43:52.120Z,9.01
2019-03-19T22:46:31.832Z,8.96
2019-03-19T22:49:02.663Z,8.92
2019-03-19T22:51:33.431Z,8.93
2019-03-19T22:54:20.445Z,8.94
2019-03-19T22:56:41.633Z,8.88
2019-03-19T22:59:20.468Z,8.89
2019-03-19T23:02:01.650Z,8.85
2019-03-19T23:04:34.115Z,8.81
2019-03-19T23:07:05.120Z,8.77
2019-03-19T23:09:37.563Z,8.74
2019-03-19T23:12:08.546Z,8.77
2019-03-19T23:14:43.435Z,8.75
2019-03-19T23:17:16.588Z,8.70
2019-03-19T23:19:50.754Z,8.65
2019-03-19T23:22:22.705Z,8.63
2019-03-19T23:25:01.057Z,8.63
2019-03-19T23:27:31.780Z,8.62
2019-03-19T23:30:02.652Z,8.61
2019-03-19T23:32:34.397Z,8.60
2019-03-19T23:35:07.389Z,8.62
2019-03-19T23:37:38.064Z,8.61
2019-03-19T23:40:11.524Z,8.57
2019-03-19T23:42:44.410Z,8.55
2019-03-19T23:45:15.469Z,8.53
2019-03-19T23:47:46.524Z,8.52
2019-03-19T23:50:20.261Z,8.51
2019-03-19T23:52:51.967Z,8.54
2019-03-19T23:55:23.008Z,8.62
2019-03-19T23:57:54.083Z,8.68
